Time;durP1;ratioP1;P1;durP2;ratioP2;P2;SDS_P1;SDS_P2;PMS_P1;PMS_P2;Temp;Humidity;BMP_temperature;BMP_pressure;BME280_temperature;BME280_humidity;BME280_pressure;Samples;Min_cycle;Max_cycle;Signal;HPM_P1;HPM_P2
2021/08/17 00:02:10;;;;;;;15.88;10.85;;;14.60;83.50;;;13.42;84.98;96097.81;4843137;29;20314;-79
2021/08/17 00:04:39;;;;;;;17.13;11.70;;;14.70;83.10;;;13.45;84.42;96110.59;4827288;28;20373;-78
2021/08/17 00:07:05;;;;;;;14.43;10.68;;;14.80;82.80;;;13.45;85.72;96109.78;4826314;29;20040;-79
2021/08/17 00:09:32;;;;;;;14.68;10.82;;;14.80;82.70;;;13.46;85.00;96106.94;4811552;29;20290;-80
2021/08/17 00:12:01;;;;;;;17.63;11.43;;;14.80;82.60;;;13.48;84.64;96115.47;4868151;28;20425;-80
2021/08/17 00:14:34;;;;;;;17.50;11.15;;;14.80;82.70;;;13.49;85.33;96117.09;4870702;28;20466;-80
2021/08/17 00:17:08;;;;;;;14.23;11.10;;;14.80;82.60;;;13.48;85.46;96114.66;4876380;28;20294;-81
2021/08/17 00:19:35;;;;;;;15.55;11.15;;;14.80;82.80;;;13.49;84.37;96122.38;4855912;29;20665;-78
2021/08/17 00:22:11;;;;;;;15.35;11.10;;;14.80;82.40;;;13.48;84.33;96115.47;4845422;29;20309;-80
2021/08/17 00:24:39;;;;;;;14.98;11.65;;;14.80;82.30;;;13.48;85.79;96118.13;4848782;29;20057;-82
2021/08/17 00:27:06;;;;;;;15.63;11.57;;;14.80;82.70;;;13.46;85.50;96112.22;4845864;28;20486;-80
2021/08/17 00:29:32;;;;;;;16.15;11.85;;;14.90;82.60;;;13.48;84.42;96120.75;4864507;28;20513;-79
2021/08/17 00:31:58;;;;;;;15.20;11.43;;;14.80;82.80;;;13.48;85.85;96115.47;4853817;28;20202;-83
2021/08/17 00:34:25;;;;;;;14.68;11.25;;;14.70;82.80;;;13.45;84.66;96110.59;4874665;28;20334;-79
2021/08/17 00:36:51;;;;;;;16.25;11.35;;;14.70;83.50;;;13.47;85.04;96113.84;4855113;28;20330;-79
2021/08/17 00:39:19;;;;;;;17.15;12.00;;;14.70;83.20;;;13.45;86.31;96105.31;4824140;29;20459;-80
2021/08/17 00:41:45;;;;;;;16.65;11.27;;;14.80;83.10;;;13.44;86.18;96108.97;4826352;29;20222;-80
2021/08/17 00:44:28;;;;;;;17.73;11.55;;;14.70;83.00;;;13.44;85.52;96116.09;4828831;29;20525;-78
2021/08/17 00:46:57;;;;;;;16.40;11.55;;;14.70;82.90;;;13.43;85.32;96117.13;4855762;28;20374;-81
2021/08/17 00:49:24;;;;;;;14.48;11.20;;;14.70;83.30;;;13.42;86.21;96115.50;4823993;29;20351;-80
2021/08/17 00:51:56;;;;;;;13.45;9.98;;;14.70;83.70;;;13.37;85.25;96124.03;4825835;29;20366;-80
2021/08/17 00:54:27;;;;;;;10.85;8.23;;;14.60;83.50;;;13.32;85.94;96131.75;4831462;29;20599;-80
2021/08/17 00:56:56;;;;;;;9.80;7.70;;;14.50;83.40;;;13.29;85.86;96136.63;4813540;28;20132;-80
2021/08/17 00:59:23;;;;;;;10.30;7.68;;;14.40;82.70;;;13.22;85.54;96141.94;4827312;29;20419;-80
2021/08/17 01:01:50;;;;;;;10.40;7.75;;;14.30;83.20;;;13.21;85.52;96145.59;4821797;29;20366;-80
2021/08/17 01:04:16;;;;;;;9.85;6.90;;;14.40;82.30;;;13.16;84.96;96148.00;4831360;28;20575;-81
2021/08/17 01:06:42;;;;;;;9.35;6.97;;;14.40;82.40;;;13.16;85.42;96148.81;4814623;29;20487;-80
2021/08/17 01:09:09;;;;;;;8.93;6.60;;;14.50;82.40;;;13.15;84.94;96151.66;4828831;28;20190;-80
2021/08/17 01:11:45;;;;;;;9.57;6.82;;;14.50;82.40;;;13.12;85.13;96152.84;4837046;28;20246;-80
2021/08/17 01:14:18;;;;;;;8.48;6.07;;;14.40;82.30;;;13.10;84.84;96159.34;4822259;29;20359;-81
2021/08/17 01:16:44;;;;;;;9.15;6.00;;;14.30;81.90;;;13.06;84.84;96147.59;4816919;28;20305;-79
2021/08/17 01:19:21;;;;;;;9.98;6.82;;;14.40;82.40;;;13.06;84.53;96147.59;4817584;28;20466;-79
2021/08/17 01:21:50;;;;;;;8.40;6.05;;;14.30;82.10;;;13.04;84.68;96145.16;4840798;28;20324;-81
2021/08/17 01:24:17;;;;;;;7.95;5.93;;;14.30;82.10;;;13.00;83.98;96149.22;4838630;28;20566;-80
2021/08/17 01:26:44;;;;;;;8.60;6.30;;;14.20;82.30;;;12.98;84.68;96139.88;4834076;28;20528;-81
2021/08/17 01:29:11;;;;;;;9.68;6.57;;;14.20;82.60;;;12.97;84.21;96156.72;4848477;28;20343;-80
2021/08/17 01:31:38;;;;;;;8.73;5.90;;;14.20;82.30;;;12.95;83.58;96161.41;4835763;28;20431;-80
2021/08/17 01:34:05;;;;;;;8.98;5.90;;;14.10;82.10;;;12.94;84.16;96175.63;4827158;28;20493;-80
2021/08/17 01:36:32;;;;;;;9.50;6.30;;;14.20;82.30;;;12.91;83.95;96176.03;4827548;29;20506;-80
2021/08/17 01:39:01;;;;;;;9.65;5.97;;;14.20;82.40;;;12.88;84.15;96188.59;4810095;28;20378;-79
2021/08/17 01:41:27;;;;;;;7.80;5.70;;;14.20;82.80;;;12.84;84.66;96184.72;4811622;29;20389;-80
2021/08/17 01:43:56;;;;;;;8.10;6.25;;;14.10;82.20;;;12.84;84.84;96186.56;4807038;29;20449;-79
2021/08/17 01:46:25;;;;;;;9.23;5.38;;;14.10;82.60;;;12.84;84.57;96192.66;4793133;29;20437;-81
2021/08/17 01:48:54;;;;;;;9.25;5.80;;;14.10;82.80;;;12.83;84.58;96188.38;4805639;28;20319;-81
2021/08/17 01:51:26;;;;;;;6.65;4.50;;;14.10;82.90;;;12.78;85.31;96188.19;4811449;29;20330;-80
2021/08/17 01:53:53;;;;;;;6.05;4.18;;;14.00;82.90;;;12.77;84.50;96188.38;4844857;29;20615;-81
2021/08/17 01:56:19;;;;;;;6.70;4.22;;;14.10;83.00;;;12.72;84.77;96178.44;4883350;28;20035;-79
2021/08/17 01:58:45;;;;;;;5.72;4.25;;;14.00;82.90;;;12.71;84.53;96182.09;4858504;28;20377;-80
2021/08/17 02:03:50;;;;;;;5.57;3.53;;;14.00;82.40;;;12.66;84.38;96166.00;4868613;28;20313;-64
2021/08/17 02:06:16;;;;;;;5.10;3.35;;;13.90;82.20;;;12.63;84.90;96179.59;4860659;28;20612;-64
2021/08/17 02:08:42;;;;;;;4.03;2.95;;;13.90;82.90;;;12.62;84.45;96177.16;4877419;28;20598;-64
2021/08/17 02:11:08;;;;;;;5.38;3.60;;;13.90;82.40;;;12.60;84.29;96174.72;4862421;28;20637;-64
2021/08/17 02:13:34;;;;;;;4.38;3.00;;;13.90;82.70;;;12.59;85.07;96183.66;4861259;28;20357;-65
2021/08/17 02:16:01;;;;;;;4.85;3.10;;;13.80;82.20;;;12.56;84.41;96184.88;4854240;28;20273;-64
2021/08/17 02:18:31;;;;;;;4.13;3.15;;;13.70;82.30;;;12.52;84.73;96196.84;4845902;28;20366;-64
2021/08/17 02:21:00;;;;;;;4.93;2.88;;;13.70;82.70;;;12.50;84.90;96214.69;4826096;28;20393;-64
2021/08/17 02:23:27;;;;;;;9.48;6.97;;;13.80;82.70;;;12.50;84.87;96212.06;4828755;28;20352;-64
2021/08/17 02:25:53;;;;;;;12.82;10.65;;;13.80;83.10;;;12.51;85.45;96218.16;4844250;28;20407;-64
2021/08/17 02:28:20;;;;;;;5.88;4.30;;;13.80;83.50;;;12.50;84.82;96230.53;4826191;28;20684;-64
2021/08/17 02:30:50;;;;;;;7.80;4.80;;;13.80;83.10;;;12.47;85.36;96227.47;4840245;28;20468;-65
2021/08/17 02:33:16;;;;;;;6.13;3.60;;;13.70;83.00;;;12.42;84.91;96225.41;4825686;28;20451;-65
2021/08/17 02:35:43;;;;;;;4.82;3.13;;;13.50;82.40;;;12.40;84.99;96232.72;4848329;28;20226;-64
2021/08/17 02:38:10;;;;;;;5.20;2.88;;;13.60;83.50;;;12.38;85.06;96244.47;4844111;28;20373;-64
2021/08/17 02:40:36;;;;;;;4.22;2.85;;;13.60;82.60;;;12.34;84.82;96248.50;4837746;28;20365;-66
2021/08/17 02:43:03;;;;;;;4.35;2.50;;;13.60;82.90;;;12.31;84.36;96243.63;4857863;28;20526;-69
2021/08/17 02:45:29;;;;;;;3.35;2.20;;;13.40;82.00;;;12.28;84.61;96250.13;4846931;28;20345;-68
2021/08/17 02:47:57;;;;;;;4.07;2.53;;;13.40;82.50;;;12.20;84.33;96248.44;4849074;28;20267;-69
2021/08/17 02:50:24;;;;;;;5.57;4.22;;;13.20;82.60;;;12.17;84.17;96254.09;4869961;28;20324;-65
2021/08/17 02:52:50;;;;;;;8.90;7.07;;;13.20;82.60;;;12.16;84.23;96249.03;4851499;28;20415;-65
2021/08/17 02:55:16;;;;;;;5.22;3.30;;;13.20;82.70;;;12.12;84.46;96251.25;4862177;28;20439;-65
2021/08/17 02:57:54;;;;;;;4.10;2.80;;;13.20;83.00;;;12.13;85.28;96259.97;4868113;28;20838;-65
2021/08/17 03:00:21;;;;;;;5.30;2.78;;;13.30;83.00;;;12.12;84.62;96245.97;4849579;28;20405;-65
2021/08/17 03:02:47;;;;;;;5.05;3.17;;;13.30;83.60;;;12.13;85.32;96250.25;4846258;28;20502;-65
2021/08/17 03:05:13;;;;;;;4.25;2.97;;;13.30;83.50;;;12.14;84.93;96251.06;4857464;28;20704;-65
2021/08/17 03:08:07;;;;;;;4.03;2.67;;;13.40;83.60;;;12.15;86.06;96253.50;4843190;28;20503;-65
2021/08/17 03:10:35;;;;;;;6.18;2.85;;;13.50;83.60;;;12.15;85.03;96261.41;4841655;28;20394;-65
2021/08/17 03:13:03;;;;;;;6.90;3.20;;;13.50;83.00;;;12.13;85.05;96258.16;4837203;28;20201;-65
2021/08/17 03:15:32;;;;;;;6.63;3.05;;;13.40;83.10;;;12.13;84.97;96267.88;4841674;28;20560;-65
2021/08/17 03:18:00;;;;;;;4.95;2.80;;;13.40;82.20;;;12.12;85.25;96267.06;4848102;28;20208;-65
2021/08/17 03:20:27;;;;;;;4.15;2.70;;;13.30;83.00;;;12.09;85.18;96264.81;4880023;28;20425;-65
2021/08/17 03:22:53;;;;;;;6.18;3.30;;;13.40;82.60;;;12.10;84.49;96271.72;4848466;28;20306;-65
2021/08/17 03:25:19;;;;;;;6.35;3.78;;;13.30;82.50;;;12.09;84.74;96267.47;4867501;28;20838;-65
2021/08/17 03:27:45;;;;;;;5.57;3.30;;;13.40;82.10;;;12.08;84.89;96271.09;4864384;28;20368;-66
2021/08/17 03:30:16;;;;;;;7.18;3.50;;;13.40;82.60;;;12.08;85.41;96271.09;4861636;28;20586;-65
2021/08/17 03:32:42;;;;;;;5.10;3.60;;;13.40;82.60;;;12.06;84.81;96272.31;4843589;28;20320;-65
2021/08/17 03:35:09;;;;;;;5.20;3.53;;;13.30;82.40;;;12.04;84.59;96274.34;4861554;28;20425;-65
2021/08/17 03:37:37;;;;;;;4.88;2.85;;;13.40;82.20;;;12.02;83.97;96281.63;4862293;28;20328;-65
2021/08/17 03:40:09;;;;;;;5.55;3.80;;;13.20;82.50;;;11.98;84.82;96288.25;4868152;28;20692;-68
2021/08/17 03:42:36;;;;;;;6.53;3.78;;;13.20;82.80;;;11.92;84.24;96295.13;4861005;28;20357;-67
2021/08/17 03:45:02;;;;;;;8.85;3.72;;;13.10;82.60;;;11.86;84.46;96296.72;4885130;28;20050;-67
2021/08/17 03:47:28;;;;;;;10.07;3.70;;;13.10;82.80;;;11.85;84.60;96297.72;4935901;28;20105;-65
2021/08/17 03:49:53;;;;;;;5.28;3.15;;;13.10;82.50;;;11.85;84.11;96304.81;4968594;28;20113;-66
2021/08/17 03:52:19;;;;;;;6.95;4.13;;;13.00;82.50;;;11.81;84.58;96314.13;4952450;28;20101;-66
2021/08/17 03:54:45;;;;;;;7.50;3.40;;;13.10;82.60;;;11.78;84.17;96306.56;4952976;28;20037;-66
2021/08/17 03:57:11;;;;;;;5.43;3.63;;;13.00;82.30;;;11.74;84.25;96310.56;4933960;28;20542;-67
2021/08/17 03:59:36;;;;;;;6.85;3.40;;;12.90;82.70;;;11.72;84.11;96304.66;4926442;29;20134;-66
2021/08/17 04:02:02;;;;;;;7.03;3.63;;;13.00;82.40;;;11.70;84.35;96304.88;4943651;28;20110;-66
2021/08/17 04:04:28;;;;;;;6.35;3.08;;;13.00;81.80;;;11.66;84.05;96314.16;4978413;28;20039;-66
2021/08/17 04:06:54;;;;;;;6.95;3.38;;;12.90;81.20;;;11.60;83.73;96313.09;4993782;28;20537;-66
2021/08/17 04:09:19;;;;;;;5.40;3.25;;;13.00;80.80;;;11.58;83.59;96320.38;4951411;28;20085;-66
2021/08/17 04:11:45;;;;;;;6.30;3.70;;;12.80;80.50;;;11.54;83.32;96316.50;4968523;28;20143;-66
2021/08/17 04:14:11;;;;;;;5.32;3.47;;;12.80;80.80;;;11.51;83.02;96316.03;4968726;28;20124;-66
2021/08/17 04:16:37;;;;;;;6.35;3.75;;;12.80;80.90;;;11.48;82.92;96326.97;4941998;28;20074;-66
2021/08/17 04:19:02;;;;;;;6.47;3.90;;;12.80;81.00;;;11.45;82.69;96322.88;4946367;28;20157;-66
2021/08/17 04:21:28;;;;;;;7.18;3.70;;;12.80;81.00;;;11.43;83.60;96334.63;4945367;28;20118;-66
2021/08/17 04:23:56;;;;;;;5.30;3.47;;;12.80;81.10;;;11.39;83.38;96339.44;4930141;28;20027;-65
2021/08/17 04:26:22;;;;;;;7.50;4.20;;;12.70;80.90;;;11.35;83.47;96332.94;4937742;28;20511;-66
2021/08/17 04:28:48;;;;;;;6.63;3.80;;;12.70;81.00;;;11.32;83.17;96334.13;4936665;29;20071;-66
2021/08/17 04:31:13;;;;;;;5.25;3.55;;;12.70;81.50;;;11.31;83.49;96331.66;4944198;28;20055;-66
2021/08/17 04:33:39;;;;;;;8.23;3.50;;;12.70;81.50;;;11.30;83.06;96337.94;4929404;29;20035;-66
2021/08/17 04:36:05;;;;;;;5.00;3.50;;;12.70;81.40;;;11.25;82.97;96333.22;4947270;28;20531;-66
2021/08/17 04:38:31;;;;;;;6.60;3.50;;;12.60;81.40;;;11.25;83.06;96345.59;4913677;29;20149;-66
2021/08/17 04:40:56;;;;;;;5.43;3.30;;;12.60;81.50;;;11.21;83.78;96352.22;4928324;28;20405;-66
2021/08/17 04:43:22;;;;;;;4.80;3.17;;;12.60;81.30;;;11.19;83.08;96346.34;4929598;28;20111;-66
2021/08/17 04:45:49;;;;;;;4.95;3.35;;;12.60;81.70;;;11.19;84.15;96346.34;4931451;28;20126;-67
2021/08/17 04:48:15;;;;;;;4.88;3.20;;;12.60;81.60;;;11.18;83.96;96348.16;4930380;28;20046;-67
2021/08/17 04:50:41;;;;;;;6.22;3.70;;;12.70;81.60;;;11.20;83.72;96355.88;4931785;28;20035;-66
2021/08/17 04:53:07;;;;;;;6.47;3.17;;;12.70;81.80;;;11.20;84.50;96356.69;4929715;28;20039;-66
2021/08/17 04:55:32;;;;;;;5.75;3.67;;;12.70;81.90;;;11.20;84.27;96369.03;4929264;28;20047;-66
2021/08/17 04:57:59;;;;;;;6.05;3.90;;;12.60;81.90;;;11.20;84.19;96364.56;4932615;28;20051;-67
2021/08/17 05:00:26;;;;;;;6.72;3.22;;;12.70;82.00;;;11.19;84.63;96370.03;4976580;28;20042;-67
2021/08/17 05:02:53;;;;;;;6.63;3.47;;;12.60;82.10;;;11.19;84.67;96367.41;4967169;28;20061;-66
2021/08/17 05:05:19;;;;;;;5.90;3.28;;;12.70;82.40;;;11.22;84.58;96373.09;4957868;28;20039;-66
2021/08/17 05:07:44;;;;;;;4.57;3.13;;;12.70;82.30;;;11.21;85.15;96373.28;4979915;28;20195;-66
2021/08/17 05:10:14;;;;;;;6.43;3.42;;;12.60;82.70;;;11.21;84.67;96375.91;4971066;28;20038;-66
2021/08/17 05:12:40;;;;;;;6.85;3.40;;;12.60;82.80;;;11.22;85.23;96380.19;4948538;28;20034;-67
2021/08/17 05:15:07;;;;;;;4.72;3.28;;;12.60;82.80;;;11.23;84.94;96376.56;4947693;28;20368;-66
2021/08/17 05:17:32;;;;;;;6.15;3.22;;;12.70;82.90;;;11.24;85.36;96384.25;4947393;28;20109;-66
2021/08/17 05:19:58;;;;;;;6.20;3.45;;;12.70;82.50;;;11.28;85.15;96385.53;4982898;28;20153;-66
2021/08/17 05:22:24;;;;;;;6.50;3.70;;;12.80;82.90;;;11.32;85.57;96396.53;4967211;28;20438;-66
2021/08/17 05:24:49;;;;;;;6.10;2.95;;;12.80;82.80;;;11.36;85.80;96392.50;4966847;28;20588;-66
2021/08/17 05:27:15;;;;;;;6.82;3.55;;;12.90;82.80;;;11.40;85.45;96399.03;4951088;28;20066;-66
2021/08/17 05:29:41;;;;;;;7.30;3.75;;;13.00;82.80;;;11.44;85.71;96404.75;4928330;28;20055;-66
2021/08/17 05:32:07;;;;;;;6.47;3.25;;;13.00;82.60;;;11.47;85.98;96399.91;4961120;28;20549;-67
2021/08/17 05:34:32;;;;;;;6.00;3.50;;;13.10;82.50;;;11.54;85.67;96399.97;4945222;28;20051;-67
2021/08/17 05:36:58;;;;;;;5.35;3.10;;;13.20;82.40;;;11.60;86.05;96392.16;4932061;28;20126;-67
2021/08/17 05:39:24;;;;;;;6.68;3.28;;;13.20;81.90;;;11.65;85.65;96407.38;4944256;28;20043;-67
2021/08/17 05:41:50;;;;;;;5.72;3.55;;;13.20;81.70;;;11.72;85.69;96412.72;4929203;29;20031;-67
2021/08/17 05:44:15;;;;;;;5.63;3.00;;;13.50;81.80;;;11.83;86.34;96409.63;4929226;29;20126;-67
2021/08/17 05:46:41;;;;;;;4.97;3.05;;;13.60;81.80;;;11.95;85.70;96408.09;4965369;28;20042;-67
2021/08/17 05:49:07;;;;;;;5.13;2.90;;;13.70;80.90;;;12.03;85.35;96404.53;4943593;28;20130;-67
2021/08/17 05:51:33;;;;;;;5.38;3.17;;;13.70;80.20;;;12.11;84.71;96413.09;4944674;29;20039;-67
2021/08/17 05:53:58;;;;;;;5.60;3.00;;;13.80;80.30;;;12.18;84.56;96408.69;4929013;28;20147;-67
2021/08/17 05:56:24;;;;;;;6.13;3.45;;;13.90;80.00;;;12.27;84.30;96406.75;4952711;28;20330;-67
2021/08/17 05:58:50;;;;;;;5.63;3.03;;;13.90;78.70;;;12.33;84.09;96405.16;4964182;28;20501;-67
2021/08/17 06:01:17;;;;;;;7.13;4.53;;;14.00;78.40;;;12.38;83.54;96406.19;4963332;28;20042;-67
2021/08/17 06:03:42;;;;;;;16.90;11.75;;;14.10;79.60;;;12.49;83.46;96410.16;5003389;28;20390;-66
2021/08/17 06:06:08;;;;;;;11.40;7.40;;;14.30;79.30;;;12.55;83.92;96407.53;4960885;28;20062;-67
2021/08/17 06:08:34;;;;;;;8.80;5.47;;;14.40;78.50;;;12.60;83.75;96422.78;4971027;28;20038;-67
2021/08/17 06:11:00;;;;;;;5.80;3.97;;;14.40;78.20;;;12.67;82.95;96423.63;4969563;28;20182;-67
2021/08/17 06:13:27;;;;;;;4.97;3.47;;;14.40;77.70;;;12.70;82.71;96430.38;4986617;28;20037;-67
2021/08/17 06:15:52;;;;;;;5.63;3.78;;;14.30;76.80;;;12.72;81.75;96431.81;4970001;28;20038;-67
2021/08/17 06:18:18;;;;;;;8.45;4.03;;;14.20;76.70;;;12.72;80.57;96431.81;4951347;28;20115;-67
2021/08/17 06:20:44;;;;;;;6.85;4.40;;;14.40;75.50;;;12.75;81.28;96431.41;4950701;28;20542;-67
2021/08/17 06:23:10;;;;;;;8.23;4.22;;;14.50;75.70;;;12.76;80.21;96424.31;4950807;28;20123;-66
2021/08/17 06:25:36;;;;;;;6.85;4.05;;;14.50;75.10;;;12.80;79.86;96431.66;4967305;28;20106;-67
2021/08/17 06:28:07;;;;;;;9.02;5.43;;;14.50;74.30;;;12.84;78.79;96432.88;4968565;28;20084;-67
2021/08/17 06:30:33;;;;;;;11.00;8.07;;;14.60;74.70;;;12.92;80.21;96433.75;4970687;28;20042;-68
2021/08/17 06:32:58;;;;;;;11.30;5.65;;;14.70;74.30;;;13.01;79.72;96435.22;4986060;28;20030;-67
2021/08/17 06:35:24;;;;;;;8.48;5.40;;;14.90;74.70;;;13.02;79.76;96439.47;4987687;28;20137;-67
2021/08/17 06:37:50;;;;;;;8.23;5.03;;;14.60;74.10;;;13.08;78.85;96443.97;4961258;28;20125;-67
2021/08/17 06:40:16;;;;;;;9.18;7.13;;;14.80;74.40;;;13.14;78.84;96440.56;4969302;28;20557;-67
2021/08/17 06:42:42;;;;;;;7.22;4.28;;;14.90;73.60;;;13.21;78.63;96444.06;4969981;28;20121;-67
2021/08/17 06:45:08;;;;;;;6.38;4.47;;;15.00;72.90;;;13.27;77.54;96448.56;4970194;28;20502;-67
2021/08/17 06:47:34;;;;;;;7.13;3.97;;;15.00;71.30;;;13.33;77.69;96450.41;4951306;28;20066;-68
2021/08/17 06:50:00;;;;;;;9.73;4.57;;;15.10;71.90;;;13.39;77.13;96447.00;4964232;28;20031;-67
2021/08/17 06:52:26;;;;;;;6.82;4.22;;;15.10;71.20;;;13.38;76.73;96453.28;4985731;28;20089;-67
2021/08/17 06:54:52;;;;;;;5.97;4.03;;;15.10;71.20;;;13.47;76.14;96457.38;4964554;28;20219;-67
2021/08/17 06:57:17;;;;;;;6.32;3.90;;;15.30;71.10;;;13.52;75.94;96464.72;4962779;28;20057;-67
2021/08/17 06:59:43;;;;;;;6.75;4.50;;;15.30;71.10;;;13.56;77.09;96459.84;4972039;28;20041;-68
2021/08/17 07:02:09;;;;;;;7.25;3.85;;;15.30;72.00;;;13.58;75.61;96457.81;4979321;28;20534;-67
2021/08/17 07:04:34;;;;;;;8.45;4.40;;;15.40;70.20;;;13.64;75.56;96463.13;4966267;28;20130;-67
2021/08/17 07:07:00;;;;;;;6.50;4.30;;;15.30;68.80;;;13.66;74.76;96460.28;4966308;28;20126;-67
2021/08/17 07:09:26;;;;;;;5.70;3.60;;;15.50;69.80;;;13.77;73.82;96467.63;4948156;28;20031;-67
2021/08/17 07:11:52;;;;;;;6.15;4.18;;;15.60;66.90;;;13.85;73.39;96459.53;4955806;28;20046;-67
2021/08/17 07:14:17;;;;;;;6.88;3.90;;;15.70;66.50;;;13.98;72.88;96464.81;4953026;28;20121;-67
2021/08/17 07:16:43;;;;;;;7.60;3.42;;;16.10;66.30;;;14.12;72.91;96455.09;4950413;28;20043;-67
2021/08/17 07:19:09;;;;;;;5.50;3.53;;;16.10;65.20;;;14.20;72.41;96446.94;4965524;28;20189;-67
2021/08/17 07:21:34;;;;;;;5.40;3.47;;;16.20;65.50;;;14.22;71.31;96454.69;4971312;28;20121;-67
2021/08/17 07:24:02;;;;;;;7.78;3.92;;;16.00;64.30;;;14.25;70.55;96460.38;4968828;28;20121;-67
2021/08/17 07:26:27;;;;;;;5.85;3.28;;;16.10;64.70;;;14.34;71.09;96461.81;4950001;28;20693;-67
2021/08/17 07:28:53;;;;;;;6.50;3.65;;;16.40;63.40;;;14.51;71.12;96456.97;4948783;28;20094;-67
2021/08/17 07:31:19;;;;;;;8.77;4.18;;;16.90;63.30;;;14.69;70.29;96467.72;4952014;28;20578;-67
2021/08/17 07:33:44;;;;;;;8.35;6.53;;;16.90;62.00;;;14.80;69.50;96458.34;4952814;28;20035;-67
2021/08/17 07:36:11;;;;;;;6.45;4.03;;;16.90;61.40;;;14.91;69.57;96454.25;4982929;28;20105;-67
2021/08/17 07:38:37;;;;;;;8.20;3.63;;;17.20;61.10;;;15.00;68.88;96464.44;4969466;28;20138;-67
2021/08/17 07:41:02;;;;;;;8.68;4.07;;;17.10;60.30;;;15.05;68.58;96463.81;4967491;28;20062;-67
2021/08/17 07:43:28;;;;;;;9.80;3.83;;;17.00;60.60;;;15.07;67.83;96453.81;4949630;28;20116;-67
2021/08/17 07:45:54;;;;;;;6.00;3.40;;;16.90;60.10;;;15.12;68.24;96454.00;4949429;28;20121;-67
2021/08/17 07:48:20;;;;;;;5.30;3.60;;;17.20;61.60;;;15.19;68.49;96457.47;4954453;28;20063;-67
2021/08/17 07:50:46;;;;;;;6.90;3.60;;;17.30;58.90;;;15.36;67.45;96462.28;4981003;28;20454;-67
2021/08/17 07:53:11;;;;;;;6.78;4.07;;;18.10;58.10;;;15.61;67.25;96461.41;4949895;28;20117;-67
2021/08/17 07:55:37;;;;;;;6.72;3.50;;;18.40;55.90;;;15.72;66.09;96462.56;4949589;28;20063;-67
2021/08/17 07:58:03;;;;;;;5.72;3.25;;;18.30;55.80;;;15.85;66.11;96465.16;4945065;28;20077;-67
2021/08/17 08:00:29;;;;;;;5.68;3.15;;;18.70;55.70;;;16.00;65.31;96466.69;4929878;29;20580;-66
2021/08/17 08:02:55;;;;;;;6.75;3.55;;;19.00;51.50;;;16.15;64.52;96457.41;4947532;28;20439;-67
2021/08/17 08:05:20;;;;;;;7.22;3.60;;;19.40;51.90;;;16.37;64.62;96459.69;4969087;28;20069;-67
2021/08/17 08:07:46;;;;;;;4.20;2.50;;;19.80;52.30;;;16.62;64.44;96457.84;4965497;28;20057;-67
2021/08/17 08:10:12;;;;;;;6.07;3.60;;;20.10;51.50;;;16.95;63.59;96457.53;4948377;28;20116;-67
2021/08/17 08:12:38;;;;;;;6.13;2.80;;;20.60;50.20;;;17.14;62.09;96464.50;4961451;28;20183;-68
2021/08/17 08:15:05;;;;;;;5.93;2.80;;;20.40;47.90;;;17.27;60.66;96460.91;4979428;28;20121;-67
2021/08/17 08:17:31;;;;;;;8.25;5.93;;;20.40;45.30;;;17.43;60.48;96459.50;4949466;28;20129;-67
2021/08/17 08:19:56;;;;;;;7.40;4.65;;;20.60;47.90;;;17.65;60.97;96465.97;4922978;29;20046;-67
2021/08/17 08:22:22;;;;;;;6.30;2.83;;;21.10;48.10;;;17.86;59.79;96470.00;4968030;28;20138;-67
2021/08/17 08:24:48;;;;;;;5.30;2.70;;;21.10;45.50;;;17.99;59.01;96463.69;4968752;28;20362;-67
2021/08/17 08:27:14;;;;;;;5.72;2.60;;;21.20;45.70;;;18.12;57.71;96473.38;4983887;28;20030;-66
2021/08/17 08:29:40;;;;;;;5.05;2.55;;;21.50;43.40;;;18.23;57.28;96469.91;4984049;28;20030;-67
2021/08/17 08:32:07;;;;;;;5.00;2.40;;;21.40;43.40;;;18.40;56.43;96475.38;4976027;28;20070;-67
2021/08/17 08:34:32;;;;;;;9.38;2.85;;;21.40;43.50;;;18.46;56.39;96466.47;4949251;28;20046;-67
2021/08/17 08:36:58;;;;;;;6.75;2.55;;;21.60;43.80;;;18.60;56.38;96459.91;4948328;28;20042;-67
2021/08/17 08:39:24;;;;;;;5.78;2.53;;;21.70;44.30;;;18.66;55.49;96469.66;4964161;28;20058;-67
2021/08/17 08:41:50;;;;;;;4.90;1.92;;;21.40;43.20;;;18.71;55.23;96460.97;4978227;28;20137;-66
2021/08/17 08:44:15;;;;;;;4.07;2.30;;;21.70;44.00;;;18.88;54.85;96456.56;4967856;28;20087;-66
2021/08/17 08:46:41;;;;;;;4.30;2.33;;;22.10;43.90;;;19.09;54.75;96461.31;4959811;28;20093;-66
2021/08/17 08:49:07;;;;;;;3.90;2.58;;;22.60;42.90;;;19.20;54.63;96454.34;4947157;28;20035;-66
2021/08/17 08:51:35;;;;;;;6.50;2.35;;;22.30;42.50;;;19.35;54.57;96467.19;4960756;28;20486;-66
2021/08/17 08:54:02;;;;;;;4.60;2.45;;;22.50;42.40;;;19.43;54.30;96461.47;4945227;28;20027;-66
2021/08/17 08:56:28;;;;;;;6.18;2.95;;;22.50;42.10;;;19.60;53.80;96465.06;4929769;29;20174;-66
2021/08/17 08:58:54;;;;;;;7.97;2.80;;;22.80;42.70;;;19.76;52.58;96461.66;4944396;28;20031;-67
2021/08/17 09:01:21;;;;;;;6.65;2.85;;;22.90;39.80;;;19.94;52.43;96460.66;4972175;28;20034;-67
2021/08/17 09:03:50;;;;;;;5.53;2.90;;;23.00;39.20;;;20.01;49.91;96472.00;4984466;28;20038;-66
2021/08/17 09:06:32;;;;;;;4.72;2.40;;;23.00;39.30;;;20.17;47.82;96465.88;4963325;28;20038;-66
2021/08/17 09:09:18;;;;;;;5.95;2.63;;;23.10;38.40;;;20.30;48.81;96458.59;4948497;28;20125;-66
2021/08/17 09:11:46;;;;;;;7.50;2.70;;;23.40;40.10;;;20.47;49.20;96452.25;4975354;28;20522;-66
2021/08/17 09:14:27;;;;;;;6.03;3.15;;;23.60;38.70;;;20.63;46.88;96453.31;4984264;28;20153;-66
2021/08/17 09:17:03;;;;;;;5.03;2.35;;;23.60;38.00;;;20.74;47.10;96460.44;4968521;28;20034;-66
2021/08/17 09:19:41;;;;;;;5.05;2.58;;;24.00;37.50;;;20.90;47.82;96466.03;4983220;28;20034;-66
2021/08/17 09:22:22;;;;;;;4.65;2.63;;;23.60;39.00;;;21.05;47.58;96463.56;4950465;28;20035;-66
2021/08/17 09:24:53;;;;;;;6.93;3.40;;;24.20;39.30;;;21.21;47.82;96457.34;4953329;28;20043;-66
2021/08/17 09:27:27;;;;;;;6.00;3.28;;;24.40;37.80;;;21.45;45.99;96459.84;4925209;28;20027;-66
2021/08/17 09:30:11;;;;;;;4.57;3.28;;;24.60;36.70;;;21.49;44.73;96452.91;4933553;28;20161;-67
2021/08/17 09:32:56;;;;;;;5.13;3.38;;;24.40;37.10;;;21.62;44.79;96449.88;4963599;28;20077;-66
2021/08/17 09:35:23;;;;;;;7.03;5.35;;;24.70;36.50;;;21.77;48.31;96442.03;4999744;28;20058;-67
2021/08/17 09:38:09;;;;;;;7.10;4.47;;;25.00;36.40;;;22.02;43.91;96436.94;4967436;28;20030;-67
2021/08/17 09:40:35;;;;;;;6.05;3.03;;;25.50;35.60;;;22.16;47.56;96429.31;4981811;28;20136;-67
2021/08/17 09:43:18;;;;;;;5.82;2.72;;;25.60;34.90;;;22.44;44.00;96424.75;4947499;28;20047;-67
2021/08/17 09:45:47;;;;;;;5.53;2.95;;;26.00;35.60;;;22.60;44.16;96424.59;4964135;28;20035;-66
2021/08/17 09:48:14;;;;;;;8.18;4.50;;;26.00;34.20;;;22.66;46.19;96424.66;4944838;28;20043;-66
2021/08/17 09:50:41;;;;;;;6.25;3.15;;;26.10;35.30;;;22.83;45.51;96422.63;4963745;28;20038;-65
2021/08/17 09:53:18;;;;;;;6.30;2.80;;;26.50;34.40;;;22.95;42.69;96423.25;4954781;28;20126;-65
2021/08/17 09:55:52;;;;;;;6.82;3.00;;;26.10;34.70;;;23.08;41.31;96430.81;4968409;28;20505;-65
2021/08/17 09:58:38;;;;;;;4.63;2.42;;;26.50;33.00;;;23.31;40.50;96418.06;4968318;28;20058;-65
2021/08/17 10:01:05;;;;;;;5.28;2.85;;;27.10;32.60;;;23.44;42.97;96417.59;4977891;28;20039;-65
2021/08/17 10:03:31;;;;;;;6.63;3.17;;;27.40;30.50;;;23.42;43.00;96411.69;4948372;28;20043;-65
2021/08/17 10:05:58;;;;;;;4.72;3.00;;;26.30;32.60;;;23.27;43.29;96408.91;4948216;28;20027;-65
2021/08/17 10:08:28;;;;;;;7.18;3.03;;;25.90;34.30;;;23.09;41.85;96405.63;4964458;28;20034;-65
2021/08/17 10:10:55;;;;;;;8.10;2.92;;;25.80;34.50;;;22.83;42.99;96395.81;4965611;28;20490;-66
2021/08/17 10:13:25;;;;;;;5.30;2.97;;;25.10;35.20;;;22.73;42.82;96401.09;4951221;28;20141;-66
2021/08/17 10:15:51;;;;;;;4.43;2.58;;;25.70;34.90;;;22.76;44.13;96400.56;4967141;28;20166;-66
2021/08/17 10:18:28;;;;;;;3.67;2.67;;;26.40;34.50;;;23.08;40.92;96393.25;4951365;28;20111;-66
2021/08/17 10:20:55;;;;;;;7.80;3.60;;;27.50;32.20;;;23.51;43.10;96396.66;4947019;28;20043;-67
2021/08/17 10:23:21;;;;;;;7.93;2.88;;;28.60;31.40;;;23.68;43.51;96386.53;4946910;28;20120;-66